Time;durP1;ratioP1;P1;durP2;ratioP2;P2;SDS_P1;SDS_P2;PMS_P1;PMS_P2;Temp;Humidity;BMP_temperature;BMP_pressure;BME280_temperature;BME280_humidity;BME280_pressure;Samples;Min_cycle;Max_cycle;Signal;HPM_P1;HPM_P2
2022/07/14 00:00:06;;;;;;;10.95;2.33;;;;;;;19.69;50.66;100295.72;5091142;28;20040;-65
2022/07/14 00:02:33;;;;;;;9.82;3.00;;;;;;;19.68;50.88;100294.88;5090013;28;20074;-65
2022/07/14 00:04:59;;;;;;;7.95;2.03;;;;;;;19.67;50.90;100288.66;5090783;28;20460;-64
2022/07/14 00:07:27;;;;;;;10.02;2.75;;;;;;;19.66;51.25;100294.13;5091070;28;20484;-65
2022/07/14 00:09:54;;;;;;;14.63;2.97;;;;;;;19.64;50.82;100286.28;5089899;28;20056;-64
2022/07/14 00:12:20;;;;;;;8.60;2.20;;;;;;;19.62;50.91;100285.56;5091142;28;20548;-64
2022/07/14 00:14:47;;;;;;;15.52;2.97;;;;;;;19.60;51.30;100278.66;5091345;28;20633;-66
2022/07/14 00:17:14;;;;;;;11.48;2.58;;;;;;;19.56;51.21;100283.44;5090961;28;20121;-64
2022/07/14 00:19:40;;;;;;;9.27;2.20;;;;;;;19.53;51.24;100286.34;5090661;28;20506;-64
2022/07/14 00:22:07;;;;;;;12.73;2.33;;;;;;;19.48;51.27;100283.25;5090997;28;20048;-65
2022/07/14 00:24:33;;;;;;;10.73;2.40;;;;;;;19.44;51.12;100281.81;5090936;28;20451;-65
2022/07/14 00:27:00;;;;;;;12.52;2.40;;;;;;;19.38;51.33;100288.53;5090923;28;20488;-64
2022/07/14 00:29:27;;;;;;;12.57;2.47;;;;;;;19.32;51.23;100281.88;5090406;28;20686;-65
2022/07/14 00:31:53;;;;;;;10.43;2.58;;;;;;;19.26;51.52;100280.59;5089744;28;20044;-65
2022/07/14 00:34:20;;;;;;;7.93;2.63;;;;;;;19.22;51.40;100286.34;5090628;28;20050;-64
2022/07/14 00:36:47;;;;;;;11.48;2.38;;;;;;;19.17;51.47;100280.56;5091052;28;20059;-65
2022/07/14 00:39:13;;;;;;;10.23;2.45;;;;;;;19.14;51.83;100284.31;5090249;28;20084;-65
2022/07/14 00:41:40;;;;;;;13.65;2.65;;;;;;;19.10;51.54;100282.91;5090929;28;20047;-64
2022/07/14 00:44:06;;;;;;;12.55;2.28;;;;;;;19.05;51.85;100279.72;5090593;28;20067;-66
2022/07/14 00:46:37;;;;;;;5.93;1.80;;;;;;;18.99;52.06;100278.44;5091218;28;20058;-65
2022/07/14 00:49:05;;;;;;;9.63;1.88;;;;;;;18.96;51.52;100281.34;5089139;28;20083;-68
2022/07/14 00:51:31;;;;;;;8.43;2.30;;;;;;;18.93;51.81;100287.78;5089400;28;20048;-67
2022/07/14 00:53:59;;;;;;;13.45;2.97;;;;;;;18.88;51.73;100288.16;5090641;28;20452;-65
2022/07/14 00:56:26;;;;;;;11.70;2.60;;;;;;;18.84;51.92;100286.72;5090473;28;20424;-66
2022/07/14 00:58:52;;;;;;;13.73;2.60;;;;;;;18.79;51.98;100286.28;5090579;28;20048;-65
2022/07/14 01:01:19;;;;;;;10.88;2.53;;;;;;;18.77;52.32;100287.38;5090990;28;20056;-65
2022/07/14 01:03:46;;;;;;;9.13;2.10;;;;;;;18.74;52.19;100288.50;5090515;28;20436;-66
2022/07/14 01:06:12;;;;;;;8.52;2.30;;;;;;;18.71;52.02;100299.41;5090678;28;20044;-65
2022/07/14 01:08:39;;;;;;;10.70;2.97;;;;;;;18.69;52.45;100290.69;5090228;28;20052;-65
2022/07/14 01:11:07;;;;;;;10.25;1.95;;;;;;;18.64;52.83;100283.06;5088951;28;20056;-66
2022/07/14 01:13:36;;;;;;;12.20;2.47;;;;;;;18.62;52.48;100277.84;5089308;28;20098;-64
2022/07/14 01:16:05;;;;;;;13.05;2.72;;;;;;;18.59;52.68;100272.81;5091032;28;20044;-64
2022/07/14 01:18:32;;;;;;;10.90;2.20;;;;;;;18.55;52.55;100287.34;5094190;28;20051;-65
2022/07/14 01:20:59;;;;;;;10.30;2.55;;;;;;;18.51;52.71;100293.91;5094341;28;20052;-65
2022/07/14 01:23:26;;;;;;;8.32;2.35;;;;;;;18.46;52.86;100291.59;5093247;28;20040;-64
2022/07/14 01:25:52;;;;;;;10.38;2.60;;;;;;;18.44;52.99;100296.25;5094027;28;20048;-66
2022/07/14 01:28:19;;;;;;;8.98;2.78;;;;;;;18.40;53.06;100284.13;5092855;28;20093;-65
2022/07/14 01:30:46;;;;;;;12.15;2.63;;;;;;;18.37;53.01;100279.03;5094179;28;20054;-65
2022/07/14 01:33:13;;;;;;;9.15;2.38;;;;;;;18.35;52.77;100287.16;5094049;28;20083;-65
2022/07/14 01:35:39;;;;;;;13.85;2.42;;;;;;;18.31;53.09;100287.53;5094181;28;20055;-65
2022/07/14 01:38:06;;;;;;;16.75;2.92;;;;;;;18.28;53.14;100287.78;5093724;28;20051;-64
2022/07/14 01:40:32;;;;;;;13.20;2.88;;;;;;;18.23;53.28;100285.50;5093965;28;20052;-67
2022/07/14 01:42:59;;;;;;;14.75;3.10;;;;;;;18.18;53.77;100283.22;5094173;28;20125;-64
2022/07/14 01:45:26;;;;;;;13.90;2.67;;;;;;;18.15;53.63;100290.59;5093857;28;20048;-64
2022/07/14 01:47:52;;;;;;;12.35;2.45;;;;;;;18.13;53.81;100289.88;5093990;28;20078;-66
2022/07/14 01:50:19;;;;;;;10.77;2.38;;;;;;;18.10;53.91;100289.13;5093615;28;20051;-66
2022/07/14 01:52:45;;;;;;;9.88;2.15;;;;;;;18.09;53.83;100275.94;5092311;28;20048;-64
2022/07/14 01:55:12;;;;;;;10.60;2.53;;;;;;;18.08;54.11;100276.91;5093623;28;20480;-65
2022/07/14 01:57:39;;;;;;;14.00;2.22;;;;;;;18.07;54.11;100280.53;5093929;28;20055;-65
2022/07/14 02:00:06;;;;;;;16.55;2.67;;;;;;;18.05;54.19;100274.50;5093508;28;20127;-65
2022/07/14 02:02:32;;;;;;;9.43;2.22;;;;;;;18.04;53.75;100280.75;5092460;28;20048;-64
2022/07/14 02:04:59;;;;;;;12.77;2.60;;;;;;;18.03;54.15;100274.59;5093494;28;20109;-65
2022/07/14 02:07:26;;;;;;;12.45;2.67;;;;;;;18.02;54.47;100272.88;5093512;28;20056;-65
2022/07/14 02:12:38;;;;;;;12.05;2.38;;;;;;;18.03;54.60;100285.25;5093526;28;20056;-65
2022/07/14 02:15:05;;;;;;;16.02;2.70;;;;;;;18.04;54.78;100281.63;5093537;28;20059;-65
2022/07/14 02:17:32;;;;;;;10.40;2.65;;;;;;;18.07;54.68;100269.88;5093043;28;20499;-64
2022/07/14 02:19:58;;;;;;;9.77;2.42;;;;;;;18.09;54.98;100276.78;5091995;28;20116;-65
2022/07/14 02:22:25;;;;;;;14.75;2.53;;;;;;;18.09;54.62;100274.13;5093070;28;20048;-66
2022/07/14 02:24:52;;;;;;;11.65;2.55;;;;;;;18.12;54.47;100282.88;5093351;28;20048;-65
2022/07/14 02:27:18;;;;;;;13.23;2.72;;;;;;;18.13;54.78;100284.56;5092437;28;20044;-65
2022/07/14 02:29:45;;;;;;;12.70;2.40;;;;;;;18.13;54.78;100285.38;5092771;28;20055;-65
2022/07/14 02:32:12;;;;;;;12.70;1.95;;;;;;;18.14;54.45;100291.56;5093019;28;20048;-66
2022/07/14 02:34:39;;;;;;;10.77;2.78;;;;;;;18.14;54.44;100291.56;5093353;28;20047;-65
2022/07/14 02:37:05;;;;;;;8.02;2.28;;;;;;;18.14;54.58;100294.22;5093016;28;20055;-65
2022/07/14 02:39:32;;;;;;;8.68;2.30;;;;;;;18.13;54.16;100292.53;5092533;28;20052;-65
2022/07/14 02:41:58;;;;;;;12.52;2.50;;;;;;;18.11;54.18;100282.00;5092852;28;20446;-64
2022/07/14 02:44:25;;;;;;;7.93;1.98;;;;;;;18.08;54.30;100280.44;5092916;28;20040;-64
2022/07/14 02:46:51;;;;;;;8.38;1.85;;;;;;;18.07;54.27;100284.06;5092634;28;20048;-66
2022/07/14 02:49:18;;;;;;;9.57;2.20;;;;;;;18.04;54.25;100278.09;5092595;28;20048;-65
2022/07/14 02:51:45;;;;;;;9.30;2.67;;;;;;;18.01;53.91;100278.38;5092636;28;20105;-65
2022/07/14 02:54:11;;;;;;;11.73;3.22;;;;;;;17.97;53.80;100275.94;5092569;28;20048;-66
2022/07/14 02:56:38;;;;;;;15.77;2.72;;;;;;;17.95;54.25;100277.03;5092416;28;20478;-66
2022/07/14 02:59:06;;;;;;;8.20;2.28;;;;;;;17.90;54.08;100277.41;5092099;28;20044;-64
2022/07/14 03:01:33;;;;;;;9.00;2.38;;;;;;;17.88;53.96;100276.69;5092391;28;20052;-65
2022/07/14 03:04:00;;;;;;;9.40;2.47;;;;;;;17.84;53.89;100281.38;5092289;28;20048;-64
2022/07/14 03:06:26;;;;;;;11.63;2.50;;;;;;;17.81;54.28;100279.00;5092177;28;20074;-66
2022/07/14 03:08:53;;;;;;;7.82;2.78;;;;;;;17.78;54.13;100275.69;5091958;28;20047;-64
2022/07/14 03:11:20;;;;;;;10.25;2.25;;;;;;;17.74;54.63;100272.44;5092236;28;20496;-64
2022/07/14 03:13:46;;;;;;;10.35;2.15;;;;;;;17.70;54.34;100269.19;5092209;28;20134;-65
2022/07/14 03:16:13;;;;;;;7.50;2.17;;;;;;;17.67;54.22;100269.44;5092232;28;20519;-65
2022/07/14 03:18:40;;;;;;;14.93;2.63;;;;;;;17.64;53.90;100274.97;5090718;28;20492;-65
2022/07/14 03:21:09;;;;;;;9.20;2.65;;;;;;;17.61;54.11;100279.72;5092176;28;20060;-66
2022/07/14 03:23:36;;;;;;;9.70;1.88;;;;;;;17.57;54.39;100279.13;5090638;28;20553;-65
2022/07/14 03:26:04;;;;;;;8.82;1.92;;;;;;;17.54;54.33;100285.50;5092055;28;20047;-65
2022/07/14 03:28:31;;;;;;;10.70;2.92;;;;;;;17.51;54.50;100288.41;5090347;28;20059;-66
2022/07/14 03:30:58;;;;;;;8.55;2.40;;;;;;;17.49;54.39;100285.00;5091961;28;20060;-65
2022/07/14 03:33:25;;;;;;;7.63;1.85;;;;;;;17.45;54.32;100281.75;5090290;28;20393;-65
2022/07/14 03:35:51;;;;;;;8.70;1.90;;;;;;;17.43;54.30;100283.66;5091997;28;20055;-64
2022/07/14 03:38:19;;;;;;;9.98;2.58;;;;;;;17.41;54.47;100279.44;5091047;28;20052;-65
2022/07/14 03:41:06;;;;;;;6.95;1.92;;;;;;;17.38;55.03;100282.34;5090277;28;20122;-64
2022/07/14 03:43:34;;;;;;;10.63;2.08;;;;;;;17.37;54.47;100278.84;5090485;28;20094;-66
2022/07/14 03:46:02;;;;;;;8.38;2.40;;;;;;;17.37;54.53;100283.31;5090421;28;20048;-65
2022/07/14 03:48:29;;;;;;;8.95;2.33;;;;;;;17.34;54.21;100289.72;5091320;28;20127;-66
2022/07/14 03:50:56;;;;;;;6.43;1.95;;;;;;;17.31;53.89;100285.47;5091550;28;20052;-65
2022/07/14 03:53:22;;;;;;;10.20;1.98;;;;;;;17.29;53.81;100286.56;5091406;28;20059;-64
2022/07/14 03:55:49;;;;;;;6.15;2.00;;;;;;;17.24;53.86;100281.63;5090287;28;20059;-65
2022/07/14 03:58:19;;;;;;;11.32;2.50;;;;;;;17.20;53.90;100277.50;5091571;28;20051;-65
2022/07/14 04:00:46;;;;;;;7.07;1.90;;;;;;;17.16;54.31;100284.00;5091470;28;20044;-66
2022/07/14 04:03:12;;;;;;;10.18;2.30;;;;;;;17.13;54.39;100282.44;5091564;28;20056;-64
2022/07/14 04:05:39;;;;;;;10.32;2.58;;;;;;;17.11;54.52;100287.00;5091021;28;20087;-64
2022/07/14 04:08:06;;;;;;;9.43;2.20;;;;;;;17.10;54.67;100285.31;5090967;28;20067;-66
2022/07/14 04:10:33;;;;;;;11.23;2.35;;;;;;;17.08;54.80;100284.56;5091252;28;20040;-65
2022/07/14 04:12:59;;;;;;;7.82;1.92;;;;;;;17.09;54.95;100278.31;5091162;28;20036;-64
2022/07/14 04:15:28;;;;;;;10.25;2.58;;;;;;;17.09;54.95;100280.97;5089937;28;20056;-65
2022/07/14 04:17:55;;;;;;;10.23;1.80;;;;;;;17.10;55.09;100277.34;5090941;28;20090;-64
2022/07/14 04:20:23;;;;;;;11.82;2.20;;;;;;;17.12;55.11;100274.56;5090603;28;20502;-66
2022/07/14 04:22:51;;;;;;;11.88;2.28;;;;;;;17.12;55.31;100266.59;5090930;28;20082;-67
2022/07/14 04:25:18;;;;;;;9.00;2.30;;;;;;;17.13;55.43;100265.63;5089721;28;20147;-64
2022/07/14 04:27:44;;;;;;;7.85;2.00;;;;;;;17.15;55.51;100274.31;5091177;28;20055;-66
2022/07/14 04:30:13;;;;;;;6.68;1.70;;;;;;;17.14;55.44;100272.63;5090436;28;20123;-64
2022/07/14 04:32:40;;;;;;;6.85;1.85;;;;;;;17.15;55.25;100271.66;5089683;28;20066;-63
2022/07/14 04:35:07;;;;;;;6.18;2.00;;;;;;;17.16;55.37;100271.53;5090551;28;20545;-66
2022/07/14 04:37:34;;;;;;;11.43;2.22;;;;;;;17.18;55.57;100271.44;5090614;28;20055;-64
2022/07/14 04:40:01;;;;;;;9.77;2.03;;;;;;;17.17;55.58;100278.56;5090579;28;20082;-65
2022/07/14 04:42:27;;;;;;;8.18;1.98;;;;;;;17.18;55.79;100279.41;5091162;28;20511;-66
2022/07/14 04:44:54;;;;;;;6.78;1.90;;;;;;;17.21;55.86;100267.69;5089387;28;20097;-65
2022/07/14 04:47:20;;;;;;;10.88;2.30;;;;;;;17.22;55.98;100272.03;5090745;28;20052;-67
2022/07/14 04:52:32;;;;;;;11.60;2.45;;;;;;;17.28;56.15;100276.91;5090910;28;20048;-65
2022/07/14 04:54:58;;;;;;;8.80;2.30;;;;;;;17.31;56.36;100274.00;5090987;28;20047;-65
2022/07/14 04:57:25;;;;;;;7.30;2.20;;;;;;;17.34;56.24;100278.25;5090556;28;20515;-65
2022/07/14 04:59:58;;;;;;;5.38;1.65;;;;;;;17.36;56.25;100271.84;5089251;28;20060;-66
2022/07/14 05:02:25;;;;;;;7.38;1.95;;;;;;;17.40;56.28;100275.09;5090243;28;20101;-65
2022/07/14 05:04:52;;;;;;;6.85;2.28;;;;;;;17.43;56.51;100272.19;5090088;28;20090;-65
2022/07/14 05:07:19;;;;;;;8.73;2.25;;;;;;;17.46;56.58;100279.94;5090114;28;20048;-66
2022/07/14 05:09:46;;;;;;;8.88;2.60;;;;;;;17.50;56.55;100278.75;5089198;28;20048;-65
2022/07/14 05:12:16;;;;;;;11.60;2.22;;;;;;;17.53;56.80;100277.66;5089222;28;20048;-65
2022/07/14 05:14:42;;;;;;;8.57;2.33;;;;;;;17.57;56.66;100271.97;5089769;28;20052;-65
2022/07/14 05:17:09;;;;;;;8.27;2.13;;;;;;;17.61;56.73;100275.25;5089350;28;20109;-66
2022/07/14 05:19:46;;;;;;;6.65;1.90;;;;;;;17.66;56.90;100267.75;5089333;28;20080;-65
2022/07/14 05:22:13;;;;;;;6.10;1.50;;;;;;;17.70;56.61;100269.19;5089735;28;20058;-65
2022/07/14 05:24:40;;;;;;;12.45;2.70;;;;;;;17.76;56.62;100269.66;5090531;28;20447;-67
2022/07/14 05:27:06;;;;;;;12.77;2.47;;;;;;;17.80;56.97;100279.94;5090387;28;20048;-65
2022/07/14 05:29:33;;;;;;;8.32;2.13;;;;;;;17.85;56.84;100279.59;5089965;28;20139;-66
2022/07/14 05:32:00;;;;;;;10.82;1.85;;;;;;;17.88;56.73;100274.03;5090474;28;20048;-68
2022/07/14 05:34:29;;;;;;;8.65;2.13;;;;;;;17.92;57.27;100266.63;5089192;28;20083;-66
2022/07/14 05:36:56;;;;;;;6.10;1.83;;;;;;;17.96;57.07;100270.72;5088928;28;20048;-65
2022/07/14 05:39:23;;;;;;;7.47;2.20;;;;;;;18.01;57.02;100275.69;5090032;28;20545;-64
2022/07/14 05:41:49;;;;;;;7.05;1.92;;;;;;;18.04;56.45;100275.44;5090142;28;20074;-66
2022/07/14 05:44:16;;;;;;;10.95;2.15;;;;;;;18.09;56.42;100268.81;5090422;28;20048;-65
2022/07/14 05:46:43;;;;;;;9.13;2.13;;;;;;;18.14;56.62;100270.25;5090099;28;20052;-65
2022/07/14 05:49:09;;;;;;;5.38;1.50;;;;;;;18.17;56.34;100273.50;5089927;28;20055;-65
2022/07/14 05:51:36;;;;;;;8.48;1.88;;;;;;;18.22;56.38;100273.16;5090071;28;20063;-66
2022/07/14 05:54:02;;;;;;;11.40;1.77;;;;;;;18.26;55.93;100287.91;5090208;28;20048;-65
2022/07/14 05:56:29;;;;;;;9.07;1.90;;;;;;;18.29;56.16;100285.00;5090034;28;20412;-65
2022/07/14 05:58:56;;;;;;;10.35;2.08;;;;;;;18.33;55.88;100283.78;5089863;28;20404;-64
2022/07/14 06:01:22;;;;;;;6.90;1.70;;;;;;;18.37;55.78;100289.69;5088929;28;20500;-66
2022/07/14 06:03:54;;;;;;;12.30;1.70;;;;;;;18.41;55.33;100295.63;5092612;28;20392;-64
2022/07/14 06:06:21;;;;;;;6.80;1.80;;;;;;;18.46;55.57;100302.28;5093638;28;20450;-65
2022/07/14 06:08:48;;;;;;;9.02;1.70;;;;;;;18.51;55.29;100299.25;5093548;28;20291;-65
2022/07/14 06:11:15;;;;;;;7.93;1.45;;;;;;;18.55;55.32;100300.69;5092303;28;20480;-64
2022/07/14 06:13:45;;;;;;;10.20;1.95;;;;;;;18.59;55.10;100295.94;5092186;28;20071;-65
2022/07/14 06:16:12;;;;;;;7.28;1.92;;;;;;;18.64;55.07;100300.91;5093831;28;20054;-64
2022/07/14 06:18:39;;;;;;;6.53;1.92;;;;;;;18.68;55.26;100289.84;5092012;28;20055;-64
2022/07/14 06:21:08;;;;;;;7.63;2.00;;;;;;;18.72;55.40;100291.28;5093402;28;20056;-64
2022/07/14 06:23:36;;;;;;;7.90;1.80;;;;;;;18.80;55.54;100287.97;5091985;28;20131;-64
2022/07/14 06:26:08;;;;;;;7.55;2.03;;;;;;;18.88;56.12;100295.34;5092153;28;20056;-66
2022/07/14 06:28:35;;;;;;;6.28;1.90;;;;;;;18.99;56.20;100294.44;5091788;28;20085;-65
2022/07/14 06:31:02;;;;;;;6.75;2.10;;;;;;;19.11;55.75;100301.41;5092055;28;20047;-65
2022/07/14 06:33:30;;;;;;;7.90;2.25;;;;;;;19.22;55.75;100297.00;5093006;28;20044;-65
2022/07/14 06:35:56;;;;;;;9.60;2.20;;;;;;;19.33;55.27;100293.41;5093028;28;20450;-64
2022/07/14 06:38:28;;;;;;;15.65;3.00;;;;;;;19.40;55.08;100282.06;5092709;28;20815;-66
2022/07/14 06:40:55;;;;;;;8.05;1.95;;;;;;;19.48;54.41;100278.72;5092901;28;20408;-66
2022/07/14 06:43:22;;;;;;;14.23;3.08;;;;;;;19.56;54.24;100285.25;5092768;28;20043;-65
2022/07/14 06:45:49;;;;;;;13.70;2.70;;;;;;;19.60;53.63;100292.88;5092906;28;20717;-65
2022/07/14 06:48:16;;;;;;;6.00;1.60;;;;;;;19.64;53.29;100288.94;5092656;28;20051;-64
2022/07/14 06:50:43;;;;;;;7.55;1.83;;;;;;;19.68;53.04;100292.19;5092444;28;20060;-64
2022/07/14 06:53:09;;;;;;;9.95;2.13;;;;;;;19.71;53.22;100286.59;5091737;28;20051;-67
2022/07/14 06:55:36;;;;;;;9.23;1.63;;;;;;;19.73;52.99;100294.47;5092732;28;20051;-65
2022/07/14 06:58:03;;;;;;;7.30;1.70;;;;;;;19.77;52.68;100293.19;5091079;28;20554;-68
2022/07/14 07:00:30;;;;;;;7.80;1.58;;;;;;;19.83;53.01;100300.69;5092581;28;20101;-65
2022/07/14 07:02:56;;;;;;;8.32;1.92;;;;;;;19.87;53.05;100302.13;5091213;28;20048;-64
2022/07/14 07:08:08;;;;;;;9.23;1.52;;;;;;;19.98;52.74;100297.63;5092368;28;20071;-65
2022/07/14 07:10:40;;;;;;;4.75;1.65;;;;;;;20.01;52.33;100306.28;5091211;28;20040;-64
2022/07/14 07:13:08;;;;;;;6.65;1.85;;;;;;;20.04;52.00;100305.16;5091118;28;20052;-63
2022/07/14 07:15:37;;;;;;;7.47;1.70;;;;;;;20.07;51.95;100301.38;5090940;28;20503;-64
2022/07/14 07:18:06;;;;;;;7.30;1.80;;;;;;;20.10;51.80;100301.06;5092106;28;20109;-65
2022/07/14 07:20:34;;;;;;;5.40;1.77;;;;;;;20.13;52.00;100301.66;5092096;28;20559;-64
2022/07/14 07:23:02;;;;;;;6.47;1.70;;;;;;;20.17;51.63;100303.09;5090712;28;20086;-67
2022/07/14 07:25:29;;;;;;;7.30;1.90;;;;;;;20.22;51.72;100296.47;5087723;28;20036;-65
2022/07/14 07:27:56;;;;;;;11.80;2.03;;;;;;;20.25;51.67;100294.38;5091780;28;20121;-67
2022/07/14 07:30:23;;;;;;;6.78;1.58;;;;;;;20.31;51.46;100290.31;5091642;28;20055;-65
2022/07/14 07:32:50;;;;;;;6.00;1.42;;;;;;;20.34;51.17;100284.69;5091521;28;20043;-66
2022/07/14 07:35:18;;;;;;;6.20;1.98;;;;;;;20.37;50.89;100284.38;5073827;28;20141;-66
2022/07/14 07:37:45;;;;;;;9.30;2.63;;;;;;;20.39;51.11;100282.44;5090781;28;20048;-65
2022/07/14 07:40:13;;;;;;;11.00;2.50;;;;;;;20.41;51.00;100282.31;5091767;28;20052;-66
2022/07/14 07:42:40;;;;;;;9.27;1.77;;;;;;;20.41;50.87;100274.28;5089989;28;20055;-65
2022/07/14 07:45:08;;;;;;;7.05;1.83;;;;;;;20.41;50.44;100272.44;5091933;28;20048;-65
2022/07/14 07:47:35;;;;;;;7.35;1.67;;;;;;;20.39;50.53;100273.56;5090260;28;20059;-65
2022/07/14 07:50:02;;;;;;;6.72;1.80;;;;;;;20.37;50.40;100257.66;5091049;28;20048;-64
2022/07/14 07:52:29;;;;;;;10.20;1.98;;;;;;;20.34;50.25;100255.28;5091370;28;20055;-65
2022/07/14 07:54:56;;;;;;;5.45;1.60;;;;;;;20.34;50.75;100257.94;5091578;28;20070;-64
2022/07/14 07:57:43;;;;;;;9.20;1.55;;;;;;;20.37;50.95;100249.63;5090798;28;20044;-64
2022/07/14 08:00:11;;;;;;;5.25;1.88;;;;;;;20.41;50.85;100252.91;5091135;28;20446;-64
2022/07/14 08:02:48;;;;;;;8.75;1.73;;;;;;;20.43;50.59;100254.44;5090118;28;20052;-65
2022/07/14 08:05:17;;;;;;;4.88;1.40;;;;;;;20.49;49.90;100246.84;5090324;28;20044;-64
2022/07/14 08:08:07;;;;;;;7.40;1.60;;;;;;;20.49;50.12;100241.50;5088744;28;20060;-65
2022/07/14 08:10:34;;;;;;;7.45;2.15;;;;;;;20.47;49.88;100240.78;5089616;28;20519;-66
2022/07/14 08:13:00;;;;;;;6.47;1.50;;;;;;;20.46;50.11;100242.63;5090926;28;20163;-65
2022/07/14 08:15:27;;;;;;;8.30;1.90;;;;;;;20.43;50.11;100242.88;5091066;28;20055;-66
2022/07/14 08:17:54;;;;;;;15.27;2.00;;;;;;;20.41;49.87;100239.53;5091340;28;20052;-65
2022/07/14 08:20:20;;;;;;;7.00;1.67;;;;;;;20.41;49.96;100243.03;5090778;28;20110;-65
2022/07/14 08:22:47;;;;;;;5.13;1.50;;;;;;;20.46;50.19;100236.41;5091237;28;20135;-66
2022/07/14 08:25:14;;;;;;;5.55;1.60;;;;;;;20.51;49.80;100235.00;5090447;28;20040;-64
2022/07/14 08:27:40;;;;;;;6.97;1.70;;;;;;;20.59;49.67;100228.94;5091085;28;20132;-65
2022/07/14 08:30:07;;;;;;;6.57;2.15;;;;;;;20.69;49.80;100231.63;5090967;28;20527;-65
2022/07/14 08:32:41;;;;;;;7.13;1.75;;;;;;;20.77;48.00;100229.09;5089628;28;20385;-65
2022/07/14 08:35:11;;;;;;;3.58;1.17;;;;;;;20.86;48.29;100232.72;5089609;28;20044;-67
2022/07/14 08:37:38;;;;;;;5.22;1.35;;;;;;;20.91;47.84;100235.88;5089791;28;20071;-65
2022/07/14 08:40:08;;;;;;;4.93;1.40;;;;;;;20.94;48.41;100230.19;5090836;28;20044;-65
2022/07/14 08:42:36;;;;;;;5.22;1.40;;;;;;;21.01;48.31;100226.97;5089527;28;20086;-65
2022/07/14 08:45:09;;;;;;;8.05;2.10;;;;;;;21.05;48.01;100223.00;5089573;28;20059;-64
2022/07/14 08:47:37;;;;;;;6.38;1.35;;;;;;;21.17;48.54;100229.03;5089352;28;20044;-64
2022/07/14 08:50:06;;;;;;;3.70;1.20;;;;;;;21.26;48.21;100221.97;5089416;28;20515;-65
2022/07/14 08:52:33;;;;;;;5.85;1.13;;;;;;;21.35;48.35;100223.78;5089429;28;20048;-65
2022/07/14 08:55:00;;;;;;;6.72;1.60;;;;;;;21.47;48.63;100225.28;5089530;28;20048;-65
2022/07/14 08:57:27;;;;;;;7.55;1.55;;;;;;;21.60;48.43;100229.44;5090551;28;20052;-67
2022/07/14 08:59:53;;;;;;;5.45;1.42;;;;;;;21.73;47.81;100221.94;5090175;28;20051;-65
2022/07/14 09:02:22;;;;;;;6.93;1.90;;;;;;;21.86;47.03;100212.69;5090802;28;20052;-66
2022/07/14 09:04:48;;;;;;;5.05;1.55;;;;;;;21.99;46.92;100206.97;5090637;28;20086;-65
2022/07/14 09:07:33;;;;;;;5.30;1.63;;;;;;;22.07;46.90;100208.88;5090619;28;20048;-64
2022/07/14 09:10:06;;;;;;;5.80;1.20;;;;;;;22.24;47.39;100220.63;5090142;28;20048;-64
2022/07/14 09:12:34;;;;;;;6.05;1.38;;;;;;;22.36;47.87;100215.88;5090540;28;20087;-65
2022/07/14 09:17:59;;;;;;;5.55;1.73;;;;;;;22.59;45.92;100226.16;5090429;28;20777;-64
2022/07/14 09:20:32;;;;;;;5.68;1.42;;;;;;;22.69;46.03;100218.03;5088954;28;20055;-64
2022/07/14 09:23:01;;;;;;;;;;;;;;;22.73;47.03;100220.22;5091155;28;20048;-65
2022/07/14 09:25:35;;;;;;;6.97;1.63;;;;;;;22.88;46.03;100219.69;5090567;28;20364;-66
2022/07/14 09:28:04;;;;;;;7.10;2.42;;;;;;;22.91;45.88;100204.09;5090228;28;20056;-65
2022/07/14 09:30:33;;;;;;;6.05;1.63;;;;;;;23.00;46.28;100214.88;5089240;28;20063;-65
2022/07/14 09:33:05;;;;;;;6.68;1.50;;;;;;;23.10;45.14;100210.25;5090407;28;20052;-64
2022/07/14 09:35:33;;;;;;;11.07;2.10;;;;;;;23.23;45.43;100208.97;5089113;28;20555;-65
2022/07/14 09:38:01;;;;;;;4.22;1.38;;;;;;;23.29;44.89;100209.19;5093867;28;20480;-65
2022/07/14 09:40:30;;;;;;;5.85;1.88;;;;;;;23.35;44.33;100207.72;5094000;28;20050;-64
2022/07/14 09:43:02;;;;;;;6.40;1.73;;;;;;;23.40;44.29;100201.88;5092950;28;20484;-66
2022/07/14 09:45:35;;;;;;;8.95;1.83;;;;;;;23.41;44.13;100196.31;5093859;28;20056;-66
2022/07/14 09:48:18;;;;;;;7.43;1.48;;;;;;;23.39;44.28;100202.88;5092923;28;20506;-65
2022/07/14 09:50:47;;;;;;;6.63;1.92;;;;;;;23.49;44.72;100192.84;5093758;28;20535;-67
2022/07/14 09:53:26;;;;;;;4.55;1.88;;;;;;;23.56;44.23;100188.50;5092585;28;20051;-65
2022/07/14 09:55:59;;;;;;;7.18;2.08;;;;;;;23.72;44.75;100186.03;5092560;28;20077;-66
2022/07/14 09:58:31;;;;;;;7.07;2.03;;;;;;;23.85;43.82;100190.94;5092688;28;20060;-64
2022/07/14 10:01:06;;;;;;;5.97;2.00;;;;;;;23.98;43.66;100183.25;5092625;28;20610;-64
2022/07/14 10:03:35;;;;;;;4.60;1.50;;;;;;;24.07;43.20;100184.94;5092610;28;20044;-65
2022/07/14 10:06:03;;;;;;;5.22;1.60;;;;;;;24.17;42.51;100173.22;5092491;28;20080;-64
2022/07/14 10:08:55;;;;;;;6.43;1.75;;;;;;;24.25;42.32;100175.09;5092398;28;20052;-65
2022/07/14 10:11:22;;;;;;;4.47;1.80;;;;;;;24.33;42.35;100167.84;5093565;28;20056;-65
2022/07/14 10:13:50;;;;;;;5.55;1.60;;;;;;;24.40;42.63;100172.56;5093378;28;20123;-64
2022/07/14 10:16:17;;;;;;;3.88;1.42;;;;;;;24.46;42.63;100179.97;5093547;28;20560;-65
2022/07/14 10:18:45;;;;;;;4.15;1.55;;;;;;;24.53;42.21;100167.53;5092164;28;20044;-66
2022/07/14 10:21:13;;;;;;;3.80;1.52;;;;;;;24.59;41.07;100169.53;5093401;28;20165;-66
2022/07/14 10:23:40;;;;;;;5.35;1.45;;;;;;;24.66;41.33;100169.69;5093452;28;20051;-67
2022/07/14 10:26:09;;;;;;;5.47;1.23;;;;;;;24.73;41.31;100172.53;5092008;28;20051;-67
2022/07/14 10:28:39;;;;;;;8.80;1.48;;;;;;;24.82;41.89;100173.38;5093221;28;20085;-66
2022/07/14 10:31:35;;;;;;;5.43;1.42;;;;;;;24.85;40.64;100179.28;5092025;28;20135;-65
2022/07/14 10:34:22;;;;;;;3.58;0.98;;;;;;;24.94;40.31;100177.41;5091989;28;20139;-64
2022/07/14 10:37:16;;;;;;;3.55;1.10;;;;;;;25.02;40.47;100181.09;5093269;28;20044;-65
2022/07/14 10:40:14;;;;;;;3.63;1.00;;;;;;;25.14;40.55;100178.84;5092733;28;20450;-65
2022/07/14 10:42:55;;;;;;;4.13;1.35;;;;;;;25.28;41.81;100175.47;5093033;28;20105;-66
2022/07/14 10:45:22;;;;;;;3.90;1.15;;;;;;;25.48;41.55;100185.81;5093153;28;20404;-66
2022/07/14 10:47:53;;;;;;;3.00;1.00;;;;;;;25.65;38.57;100191.16;5092199;28;20056;-68
2022/07/14 10:50:28;;;;;;;3.20;0.98;;;;;;;25.82;39.88;100184.66;5092468;28;20056;-65
2022/07/14 10:52:55;;;;;;;4.70;0.95;;;;;;;26.07;40.20;100178.25;5091427;28;20040;-66
2022/07/14 10:55:33;;;;;;;8.88;1.05;;;;;;;26.34;40.16;100174.22;5092953;28;20542;-65
2022/07/14 10:57:59;;;;;;;5.90;1.00;;;;;;;26.73;39.88;100185.00;5091474;28;20105;-66
2022/07/14 11:00:44;;;;;;;3.35;0.95;;;;;;;27.16;38.75;100185.25;5092442;28;20476;-66
2022/07/14 11:03:37;;;;;;;3.00;0.95;;;;;;;27.63;38.81;100179.66;5092358;28;20044;-66
2022/07/14 11:06:05;;;;;;;5.50;1.13;;;;;;;28.09;37.99;100180.31;5092750;28;20051;-66
2022/07/14 11:09:23;;;;;;;3.55;1.15;;;;;;;28.56;37.97;100171.81;5092143;28;20048;-65
2022/07/14 11:12:19;;;;;;;4.25;1.30;;;;;;;29.12;38.05;100173.66;5092233;28;20134;-66
2022/07/14 11:14:46;;;;;;;4.43;1.20;;;;;;;29.65;36.28;100169.50;5074885;28;20047;-66
2022/07/14 11:17:39;;;;;;;4.60;1.15;;;;;;;30.13;36.68;100172.38;5092095;28;20131;-66
2022/07/14 11:20:10;;;;;;;2.63;1.08;;;;;;;30.55;33.82;100164.03;5089101;28;20385;-65
2022/07/14 11:22:37;;;;;;;1.40;0.57;;;;;;;30.79;33.19;100151.69;5092327;28;20101;-65
2022/07/14 11:25:04;;;;;;;4.20;0.80;;;;;;;30.89;32.68;100150.41;5092336;28;20040;-67
2022/07/14 11:27:37;;;;;;;2.88;1.10;;;;;;;30.89;31.96;100158.56;5090678;28;20055;-66
2022/07/14 11:30:30;;;;;;;1.90;0.73;;;;;;;30.83;32.31;100164.84;5091710;28;20075;-68
2022/07/14 11:33:08;;;;;;;3.92;0.90;;;;;;;30.88;31.45;100159.59;5090487;28;20067;-66
2022/07/14 11:38:29;;;;;;;3.53;0.90;;;;;;;30.84;31.51;100155.66;5090968;28;20134;-65
2022/07/14 11:40:55;;;;;;;2.30;0.85;;;;;;;30.85;31.96;100160.03;5090110;28;20044;-65
2022/07/14 11:43:31;;;;;;;9.15;0.85;;;;;;;30.85;30.68;100158.16;5091933;28;20062;-65